Flight Track Log - Related Links

Times and Time Zones

All times are in EDT time to prevent confusion due to time zone crossing. See the DAL268 flight status page for this flight to view local times or setup timezone preferences in your user account.

Time Position Orientation Groundspeed Altitude Reporting Facility
EDT Latitude Longitude Course Direction KTS MPH feet Rate Location/Type
Wed 12:23:11 AM 40.6440 -73.7810 264° West 9 10  Level FlightAware ADS-B
Wed 12:24:02 AM 40.6430 -73.7810 180° South 9 10 19 Level FlightAware ADS-B
Wed 12:25:30 AM 40.6420 -73.7810 180° South 9 10 19 Level FlightAware ADS-B
Wed 12:27:11 AM 40.6420 -73.7800 90° East 9 10 20 Level FlightAware ADS-B
Wed 12:28:29 AM 40.6410 -73.7800 180° South 11 13 21 Level FlightAware ADS-B
Wed 12:28:57 AM 40.6400 -73.7800 180° South 11 13 22 Level FlightAware ADS-B
Wed 12:30:05 AM 40.6390 -73.7800 180° South 12 14 23 Level FlightAware ADS-B
Wed 12:31:52 AM 40.6380 -73.7800 108° East 2 2 24 Level FlightAware ADS-B
Wed 12:32:00 AM 40.5943 -73.4271 108° East  Level FlightAware Approximate
Wed 12:34:00 AM 40.5863 -73.3952 108° East  Level FlightAware Approximate
Wed 12:35:00 AM 40.5651 -73.2157 97° East  Level FlightAware Approximate
Wed 12:35:00 AM 40.6370 -73.7810 97° East 2 2  Level FlightAware ADS-B
Wed 12:36:48 AM 40.6360 -73.7810 108° East 14 16 29 Level FlightAware ADS-B
Wed 12:37:00 AM 40.5922 -73.4188 108° East  Level FlightAware Approximate
Wed 12:37:48 AM 40.6370 -73.7800 37° Northeast 19 22  Level FlightAware ADS-B
Wed 12:38:14 AM 40.6380 -73.7790 37° Northeast 24 28 34 Level FlightAware ADS-B
Wed 12:38:45 AM 40.6390 -73.7780 37° Northeast 29 33 35 Level FlightAware ADS-B
Wed 12:39:12 AM 40.6400 -73.7770 37° Northeast 31 36 36 Level FlightAware ADS-B
Wed 12:39:30 AM 40.6420 -73.7760 21° North 15 17 37 Level FlightAware ADS-B
Wed 12:40:00 AM 40.6430 -73.7750 37° Northeast 34 39 38 Level FlightAware ADS-B
Wed 12:40:26 AM 40.6450 -73.7750 360° North 27 31 39 Level FlightAware ADS-B
Wed 12:40:54 AM 40.6460 -73.7750 360° North 23 26 40 Level FlightAware ADS-B
Wed 12:41:20 AM 40.6470 -73.7750 360° North 20 23 41 Level FlightAware ADS-B
Wed 12:41:44 AM 40.6480 -73.7760 323° Northwest 11 13 42 Level FlightAware ADS-B
Wed 12:42:26 AM 40.6480 -73.7770 270° West 17 20 44 Level FlightAware ADS-B
Wed 12:42:50 AM 40.6490 -73.7760 37° Northeast 12 14 46 Level FlightAware ADS-B
Wed 12:43:34 AM 40.6490 -73.7770 270° West 9 10 47 Level FlightAware ADS-B
Wed 12:44:02 AM 40.6480 -73.7770 180° South 2 2 50 Level FlightAware ADS-B
Wed 12:46:00 AM 40.5937 -73.4248 108° East  Level FlightAware Approximate
Wed 12:46:10 AM 40.6490 -73.7760 108° East 10 12  Level FlightAware ADS-B
Wed 12:46:44 AM 40.6500 -73.7760 360° North 10 12 64 Level FlightAware ADS-B
Wed 12:47:13 AM 40.6500 -73.7750 90° East 24 28 68 Level FlightAware ADS-B
Wed 12:47:54 AM 40.6490 -73.7730 123° Southeast 31 36 72 Level FlightAware ADS-B
Wed 12:48:18 AM 40.6480 -73.7720 143° Southeast 34 39 79 Level FlightAware ADS-B
Wed 12:48:40 AM 40.6470 -73.7700 123° Southeast 32 37 83 Level FlightAware ADS-B
Wed 12:49:00 AM 40.6460 -73.7700 180° South 29 33 88 Level FlightAware ADS-B
Wed 12:49:40 AM 40.6460 -73.7730 270° West 28 32 92 Level FlightAware ADS-B
Wed 12:50:20 AM 40.6470 -73.7750 303° West 20 23 103 Level FlightAware ADS-B
Wed 12:51:06 AM 40.6470 -73.7760 270° West 2 2 116 Level FlightAware ADS-B
Wed 12:51:48 AM 40.6470 -73.7770 270° West 2 2 136 Level FlightAware ADS-B
Wed 12:53:47 AM 40.6470 -73.7790 270° West 15 17 162 Level FlightAware ADS-B
Wed 12:54:30 AM 40.6470 -73.7800 270° West 27 31 350 Level FlightAware ADS-B
Wed 12:54:50 AM 40.6430 -73.7830 210° Southwest 90 104 600 Level FlightAware ADS-B
Wed 12:55:30 AM 40.6180 -73.8020 210° Southwest 183 211 600 1,315 Climbing FlightAware ADS-B
Wed 12:56:03 AM 40.5940 -73.8210 211° Southwest 190 219 1,600 1,452 Climbing FlightAware ADS-B
Wed 12:56:32 AM 40.5700 -73.8370 207° Southwest 222 255 2,100 1,050 Climbing FlightAware ADS-B
Wed 12:56:43 AM 40.5580 -73.8430 201° Southwest 234 269 2,300 1,200 Climbing FlightAware ADS-B
Wed 12:56:52 AM 40.5490 -73.8440 185° South 248 285 2,500 1,034 Climbing FlightAware ADS-B
Wed 12:57:12 AM 40.5260 -73.8330 160° South 271 312 2,800 938 Climbing FlightAware ADS-B
Wed 12:57:24 AM 40.5150 -73.8190 136° Southeast 282 325 3,000 1,500 Climbing FlightAware ADS-B
Wed 12:57:32 AM 40.5100 -73.8070 119° Southeast 288 331 3,300 2,000 Climbing FlightAware ADS-B
Wed 12:57:48 AM 40.5030 -73.7800 109° East 296 341 3,800 2,170 Climbing FlightAware ADS-B
Wed 12:58:19 AM 40.5133 -73.7260 76° East 304 350 5,000 2,400 Climbing FlightAware ADS-B
Wed 12:58:28 AM 40.5200 -73.7116 59° Northeast 306 352 5,400 3,000 Climbing FlightAware ADS-B
Wed 12:58:35 AM 40.5244 -73.7002 63° Northeast 308 354 5,800 3,000 Climbing FlightAware ADS-B
Wed 12:58:42 AM 40.5280 -73.6873 70° East 309 356 6,100 2,667 Climbing FlightAware ADS-B
Wed 12:58:53 AM 40.5324 -73.6681 73° East 314 361 6,600 2,471 Climbing FlightAware ADS-B
Wed 12:58:59 AM 40.5341 -73.6566 79° East 315 362 6,800 2,500 Climbing FlightAware ADS-B
Wed 12:59:05 AM 40.5351 -73.6439 84° East 317 365 7,100 2,857 Climbing FlightAware ADS-B
Wed 12:59:20 AM 40.5356 -73.6149 89° East 319 367 7,800 2,625 Climbing FlightAware ADS-B
Wed 12:59:37 AM 40.5368 -73.5837 87° East 322 371 8,500 2,545 Climbing FlightAware ADS-B
Wed 12:59:53 AM 40.5385 -73.5522 86° East 324 373 9,200 2,323 Climbing FlightAware ADS-B
Wed 01:00:08 AM 40.5399 -73.5211 87° East 329 379 9,700 2,133 Climbing FlightAware ADS-B
Wed 01:00:38 AM 40.5430 -73.4604 86° East 343 395 10,800 1,574 Climbing FlightAware ADS-B
Wed 01:01:09 AM 40.5458 -73.3929 87° East 373 429 11,300 977 Climbing FlightAware ADS-B
Wed 01:01:21 AM 40.5468 -73.3669 87° East 383 441 11,500 1,000 Climbing FlightAware ADS-B
Wed 01:01:33 AM 40.5501 -73.3379 81° East 394 453 11,700 1,333 Climbing FlightAware ADS-B
Wed 01:01:48 AM 40.5581 -73.3025 73° East 405 466 12,100 1,313 Climbing FlightAware ADS-B
Wed 01:02:05 AM 40.5720 -73.2639 65° Northeast 419 482 12,400 1,277 Climbing FlightAware ADS-B
Wed 01:02:35 AM 40.6048 -73.1982 57° Northeast 438 504 13,100 1,500 Climbing FlightAware ADS-B
Wed 01:03:05 AM 40.6388 -73.1295 57° Northeast 455 524 13,900 1,727 Climbing FlightAware ADS-B
Wed 01:03:41 AM 40.6785 -73.0428 59° Northeast 467 537 15,000 1,818 Climbing FlightAware ADS-B
Wed 01:04:11 AM 40.7103 -72.9670 61° Northeast 477 549 15,900 1,770 Climbing FlightAware ADS-B
Wed 01:04:42 AM 40.7433 -72.8881 61° Northeast 486 559 16,800 1,742 Climbing FlightAware ADS-B
Wed 01:05:13 AM 40.7768 -72.8077 61° Northeast 495 570 17,700 1,714 Climbing FlightAware ADS-B
Wed 01:05:45 AM 40.8122 -72.7225 61° Northeast 504 580 18,600 1,562 Climbing FlightAware ADS-B
Wed 01:06:26 AM 40.8591 -72.6101 61° Northeast 516 594 19,600 1,521 Climbing FlightAware ADS-B
Wed 01:06:56 AM 40.8947 -72.5247 61° Northeast 522 601 20,400 1,574 Climbing FlightAware ADS-B
Wed 01:07:27 AM 40.9309 -72.4380 61° Northeast 528 608 21,200 1,477 Climbing FlightAware ADS-B
Wed 01:08:01 AM 40.9706 -72.3422 61° Northeast 534 615 22,000 1,522 Climbing FlightAware ADS-B
Wed 01:08:34 AM 41.0098 -72.2469 61° Northeast 537 618 22,900 1,594 Climbing FlightAware ADS-B
Wed 01:09:05 AM 41.0467 -72.1577 61° Northeast 541 623 23,700 1,351 Climbing FlightAware ADS-B
Wed 01:10:25 AM 41.1432 -71.9219 61° Northeast 554 638 25,400 1,065 Climbing FlightAware ADS-B
Wed 01:12:11 AM 41.2730 -71.6020 62° Northeast 576 663 27,000 1,031 Climbing FlightAware ADS-B
Wed 01:13:08 AM 41.3400 -71.4360 62° Northeast 576 663 28,200 1,389 Climbing FlightAware ADS-B
Wed 01:13:46 AM 41.3940 -71.3010 62° Northeast 568 654 29,200 1,538 Climbing FlightAware ADS-B
Wed 01:14:26 AM 41.4440 -71.1780 61° Northeast 565 650 30,200 1,271 Climbing FlightAware ADS-B
Wed 01:15:11 AM 41.4990 -71.0380 62° Northeast 563 648 31,000 640 Climbing FlightAware ADS-B
Wed 01:15:41 AM 41.5320 -70.9550 62° Northeast 566 651 31,000  Level FlightAware ADS-B
Wed 01:16:21 AM 41.5840 -70.8210 63° Northeast 565 650 31,000  Level FlightAware ADS-B
Wed 01:17:40 AM 41.6680 -70.6090 62° Northeast 566 651 31,000  Level FlightAware ADS-B
Wed 01:18:16 AM 41.7050 -70.5140 62° Northeast 566 651 31,000  Level FlightAware ADS-B
Wed 01:19:00 AM 41.7750 -70.3260 63° Northeast 31,000  Level FlightAware ADS-B
Wed 01:19:52 AM 41.8360 -70.1680 63° Northeast 31,000  Level FlightAware ADS-B
Wed 01:20:45 AM 41.9050 -69.9880 63° Northeast 575 662 31,000  Level FlightAware ADS-B
Wed 01:21:30 AM 41.9570 -69.8510 63° Northeast 578 665 31,000  Level FlightAware ADS-B
Wed 01:22:05 AM 42.0010 -69.7340 63° Northeast 577 664 31,000  Level FlightAware ADS-B
Wed 01:22:54 AM 42.0470 -69.6130 63° Northeast 577 664 31,000  Level FlightAware ADS-B
Wed 01:23:30 AM 42.1040 -69.4610 63° Northeast 577 664 31,000  Level FlightAware ADS-B
Wed 01:24:15 AM 42.1590 -69.3140 63° Northeast 579 666 31,000  Level FlightAware ADS-B
Wed 01:24:56 AM 42.2060 -69.1870 63° Northeast 579 666 31,000  Level FlightAware ADS-B
Wed 01:25:35 AM 42.2540 -69.0570 63° Northeast 579 666 31,000  Level FlightAware ADS-B
Wed 01:26:15 AM 42.3000 -68.9290 64° Northeast 579 666 31,000  Level FlightAware ADS-B
Wed 01:26:55 AM 42.3490 -68.7960 63° Northeast 579 666 31,000  Level FlightAware ADS-B
Wed 01:27:35 AM 42.3930 -68.6750 64° Northeast 575 662 31,000  Level FlightAware ADS-B
Wed 01:28:13 AM 42.4370 -68.5520 64° Northeast 574 661 31,000  Level FlightAware ADS-B
Wed 01:28:51 AM 42.4840 -68.4200 64° Northeast 572 658 31,000  Level FlightAware ADS-B
Wed 01:29:36 AM 42.5370 -68.2730 64° Northeast 572 658 31,000  Level FlightAware ADS-B
Wed 01:30:13 AM 42.5710 -68.1730 65° Northeast 571 657 31,000  Level FlightAware ADS-B
Wed 01:31:01 AM 42.6170 -68.0410 65° Northeast 571 657 31,000  Level FlightAware ADS-B
Wed 01:31:37 AM 42.6510 -67.9410 65° Northeast 571 657 31,000  Level FlightAware ADS-B
Wed 01:32:25 AM 42.6970 -67.8080 65° Northeast 571 657 31,000  Level FlightAware ADS-B
Wed 01:33:01 AM 42.7310 -67.7080 65° Northeast 571 657 31,000  Level FlightAware ADS-B
Wed 01:33:49 AM 42.7760 -67.5750 65° Northeast 571 657 31,000  Level FlightAware ADS-B
Wed 01:34:26 AM 42.8110 -67.4730 65° Northeast 571 657 31,000  Level FlightAware ADS-B
Wed 01:35:15 AM 42.8580 -67.3370 65° Northeast 571 657 31,000  Level FlightAware ADS-B
Wed 01:35:52 AM 42.8930 -67.2340 65° Northeast 571 657 31,000 1,326 Level FlightAware ADS-B
Wed 01:36:41 AM 43.0160 -66.8960 63° Northeast 568 654 32,900 1,412 Climbing FlightAware ADS-B
Wed 01:37:17 AM 43.0530 -66.7880 65° Northeast 569 655 33,000 75 Climbing FlightAware ADS-B
Wed 01:38:01 AM 43.0990 -66.6500 65° Northeast 565 650 33,000  Level FlightAware ADS-B
Wed 01:38:46 AM 43.1530 -66.4870 66° East 562 647 33,000  Level FlightAware ADS-B
Wed 01:39:22 AM 43.1900 -66.3760 65° Northeast 561 646 33,000  Level FlightAware ADS-B
Wed 01:40:01 AM 43.2330 -66.2440 66° East 561 646 33,000  Level FlightAware ADS-B
Wed 01:40:42 AM 43.2780 -66.1090 65° Northeast 561 646 33,000  Level FlightAware ADS-B
Wed 01:41:21 AM 43.3190 -65.9820 66° East 560 644 33,000  Level FlightAware ADS-B
Wed 01:42:02 AM 43.3620 -65.8510 66° East 562 647 33,000  Level FlightAware ADS-B
Wed 01:42:41 AM 43.4040 -65.7220 66° East 563 648 33,000  Level FlightAware ADS-B
Wed 01:43:22 AM 43.4470 -65.5890 66° East 563 648 33,000  Level FlightAware ADS-B
Wed 01:44:06 AM 43.4940 -65.4430 66° East 561 646 33,000  Level FlightAware ADS-B
Wed 01:44:46 AM 43.5360 -65.3110 66° East 561 646 33,000  Level FlightAware ADS-B
Wed 01:45:27 AM 43.5780 -65.1800 66° East 561 646 33,000  Level FlightAware ADS-B
Wed 01:46:11 AM 43.6230 -65.0340 67° East 557 641 33,000  Level FlightAware ADS-B
Wed 01:46:47 AM 43.6590 -64.9180 67° East 558 642 33,000  Level FlightAware ADS-B
Wed 01:47:32 AM 43.7050 -64.7710 67° East 559 643 33,000  Level FlightAware ADS-B
Wed 01:48:08 AM 43.7400 -64.6600 66° East 559 643 33,000  Level FlightAware ADS-B
Wed 01:48:59 AM 43.7890 -64.4990 67° East 558 642 33,000  Level FlightAware ADS-B
Wed 01:49:59 AM 43.8410 -64.3310 67° East 558 642 33,000  Level FlightAware ADS-B
Wed 01:50:36 AM 43.8720 -64.2280 67° East 558 642 33,000  Level FlightAware ADS-B
Wed 01:51:24 AM 43.9130 -64.0930 67° East 558 642 33,000  Level FlightAware ADS-B
Wed 01:52:00 AM 43.9440 -63.9920 67° East 558 642 33,000  Level FlightAware ADS-B
Wed 01:53:01 AM 43.9970 -63.8210 67° East 558 642 33,000  Level FlightAware ADS-B
Wed 01:53:37 AM 44.0270 -63.7200 68° East 558 642 33,000  Level FlightAware ADS-B
Wed 01:54:13 AM 44.0580 -63.6190 67° East 558 642 33,000  Level FlightAware ADS-B
Wed 01:54:59 AM 44.0980 -63.4890 67° East 558 642 33,000  Level FlightAware ADS-B
Wed 01:55:35 AM 44.1290 -63.3880 67° East 558 642 33,000  Level FlightAware ADS-B
Wed 01:56:07 AM 44.2200 -63.0660 68° East 563 648 33,000  Level FlightAware ADS-B
Wed 01:56:55 AM 44.2600 -62.9290 68° East 563 648 33,000  Level FlightAware ADS-B
Wed 01:57:31 AM 44.2890 -62.8260 68° East 563 648 33,000  Level FlightAware ADS-B
Wed 01:58:19 AM 44.3290 -62.6880 68° East 563 648 33,000  Level FlightAware ADS-B
Wed 01:59:33 AM 44.3833 -62.3333 68° East 570 656 33,000  Level Gander Center
Wed 02:00:33 AM 44.4500 -62.1167 67° East 570 656 33,000  Level Gander Center
Wed 02:01:33 AM 44.5000 -61.9333 69° East 560 644 33,000  Level Gander Center
Wed 02:07:32 AM 44.8710 -60.7310 69° East 560 644 33,000  Level FlightAware ADS-B
Wed 02:08:14 AM 44.9090 -60.5870 70° East 558 642 33,000  Level FlightAware ADS-B
Wed 02:08:58 AM 44.9480 -60.4380 70° East 559 643 33,000  Level FlightAware ADS-B
Wed 02:09:34 AM 44.9800 -60.3140 70° East 559 643 33,000  Level FlightAware ADS-B
Wed 02:10:14 AM 45.0160 -60.1750 70° East 558 642 33,000  Level FlightAware ADS-B
Wed 02:10:55 AM 45.0520 -60.0370 70° East 557 641 33,000  Level FlightAware ADS-B
Wed 02:11:39 AM 45.0900 -59.8860 70° East 557 641 33,000  Level FlightAware ADS-B
Wed 02:12:21 AM 45.1270 -59.7440 70° East 556 640 33,000  Level FlightAware ADS-B
Wed 02:13:01 AM 45.1620 -59.6060 70° East 557 641 33,000  Level FlightAware ADS-B
Wed 02:13:45 AM 45.2000 -59.4550 70° East 556 640 33,000  Level FlightAware ADS-B
Wed 02:14:21 AM 45.2310 -59.3300 71° East 557 641 33,000  Level FlightAware ADS-B
Wed 02:15:01 AM 45.2650 -59.1940 70° East 558 642 33,000  Level FlightAware ADS-B
Wed 02:15:45 AM 45.2980 -59.0390 73° East 556 640 33,000  Level FlightAware ADS-B
Wed 02:16:23 AM 45.3080 -58.9030 84° East 555 639 33,000  Level FlightAware ADS-B
Wed 02:17:01 AM 45.3260 -58.7650 79° East 558 642 33,000  Level FlightAware ADS-B
Wed 02:17:43 AM 45.3660 -58.6200 69° East 556 640 33,000  Level FlightAware ADS-B
Wed 02:18:23 AM 45.4030 -58.4840 69° East 553 636 33,000  Level FlightAware ADS-B
Wed 02:19:07 AM 45.4410 -58.3350 70° East 552 635 33,000  Level FlightAware ADS-B
Wed 02:19:58 AM 45.4810 -58.1730 71° East 551 634 33,000  Level FlightAware ADS-B
Wed 02:20:45 AM 45.5220 -58.0030 71° East 549 632 33,000  Level FlightAware ADS-B
Wed 02:21:26 AM 45.5500 -57.8850 71° East 549 632 33,000  Level FlightAware ADS-B
Wed 02:22:03 AM 45.5760 -57.7770 71° East 549 632 33,000  Level FlightAware ADS-B
Wed 02:22:39 AM 45.6020 -57.6720 70° East 549 632 33,000  Level FlightAware ADS-B
Wed 02:23:39 AM 45.6440 -57.4970 71° East 549 632 33,000  Level FlightAware ADS-B
Wed 02:24:15 AM 45.6690 -57.3910 71° East 549 632 33,000  Level FlightAware ADS-B
Wed 02:25:03 AM 45.7030 -57.2510 71° East 549 632 33,000  Level FlightAware ADS-B
Wed 02:25:39 AM 45.7280 -57.1460 71° East 549 632 33,000  Level FlightAware ADS-B
Wed 02:26:43 AM 45.8050 -56.7790 73° East 550 633 33,000  Level FlightAware ADS-B
Wed 02:27:39 AM 45.8460 -56.5870 73° East 548 631 33,000  Level FlightAware ADS-B
Wed 02:28:15 AM 45.8680 -56.4800 74° East 548 631 33,000  Level FlightAware ADS-B
Wed 02:29:02 AM 45.9090 -56.2830 73° East 546 628 33,000  Level FlightAware ADS-B
Wed 02:29:42 AM 45.9370 -56.1480 73° East 546 628 33,000  Level FlightAware ADS-B
Wed 02:30:22 AM 45.9660 -56.0060 74° East 546 628 33,000  Level FlightAware ADS-B
Wed 02:30:58 AM 45.9910 -55.8820 74° East 544 626 33,000  Level FlightAware ADS-B
Wed 02:31:43 AM 46.0230 -55.7270 73° East 546 628 33,000  Level FlightAware ADS-B
Wed 02:32:22 AM 46.0500 -55.5900 74° East 546 628 33,000  Level FlightAware ADS-B
Wed 02:33:02 AM 46.0760 -55.4590 74° East 547 629 33,000  Level FlightAware ADS-B
Wed 02:33:50 AM 46.1110 -55.2800 74° East 547 629 33,000  Level FlightAware ADS-B
Wed 02:34:31 AM 46.1390 -55.1410 74° East 547 629 33,000  Level FlightAware ADS-B
Wed 02:35:10 AM 46.1650 -55.0050 75° East 547 629 33,000  Level FlightAware ADS-B
Wed 02:35:42 AM 46.1870 -54.8930 74° East 545 627 33,000  Level FlightAware ADS-B
Wed 02:36:28 AM 46.2180 -54.7290 75° East 545 627 33,000  Level FlightAware ADS-B
Wed 02:37:08 AM 46.2440 -54.5950 74° East 546 628 33,000  Level FlightAware ADS-B
Wed 02:37:48 AM 46.2720 -54.4440 75° East 546 628 33,000  Level FlightAware ADS-B
Wed 02:38:28 AM 46.2990 -54.3050 74° East 546 628 33,000  Level FlightAware ADS-B
Wed 02:39:10 AM 46.3260 -54.1550 75° East 546 628 33,000  Level FlightAware ADS-B
Wed 02:39:54 AM 46.3550 -54.0020 75° East 546 628 33,000  Level FlightAware ADS-B
Wed 02:40:34 AM 46.3810 -53.8580 75° East 545 627 33,000  Level FlightAware ADS-B
Wed 02:41:18 AM 46.4090 -53.7030 75° East 545 627 33,000  Level FlightAware ADS-B
Wed 02:41:58 AM 46.4340 -53.5640 75° East 545 627 33,000  Level FlightAware ADS-B
Wed 02:42:34 AM 46.4580 -53.4330 75° East 545 627 33,000  Level FlightAware ADS-B
Wed 02:43:14 AM 46.4820 -53.2950 76° East 544 626 33,000  Level FlightAware ADS-B
Wed 02:43:58 AM 46.5100 -53.1390 75° East 545 627 33,000  Level FlightAware ADS-B
Wed 02:44:35 AM 46.5320 -53.0100 76° East 545 627 33,000  Level FlightAware ADS-B
Wed 02:45:09 AM 46.5540 -52.8880 75° East 544 626 33,000  Level FlightAware ADS-B
Wed 02:45:58 AM 46.5830 -52.7160 76° East 544 626 33,000  Level FlightAware ADS-B
Wed 02:46:39 AM 46.6090 -52.5690 76° East 545 627 33,000  Level FlightAware ADS-B
Wed 02:47:19 AM 46.6320 -52.4290 76° East 545 627 33,000  Level FlightAware ADS-B
Wed 02:48:03 AM 46.6590 -52.2720 76° East 545 627 33,000  Level FlightAware ADS-B
Wed 02:48:43 AM 46.6830 -52.1270 76° East 546 628 33,000  Level FlightAware ADS-B
Wed 02:49:24 AM 46.7060 -51.9850 77° East 545 627 33,000  Level FlightAware ADS-B
Wed 02:50:01 AM 46.7290 -51.8480 76° East 545 627 33,000  Level FlightAware ADS-B
Wed 02:50:45 AM 46.7540 -51.6910 77° East 545 627 33,000  Level FlightAware ADS-B
Wed 02:51:32 AM 46.7800 -51.5260 77° East 545 627 33,000  Level FlightAware ADS-B
Wed 02:52:13 AM 46.8030 -51.3840 77° East 545 627 33,000  Level FlightAware ADS-B
Wed 02:52:58 AM 46.8290 -51.2200 77° East 545 627 33,000  Level FlightAware ADS-B
Wed 02:53:39 AM 46.8490 -51.0910 77° East 545 627 33,000  Level FlightAware ADS-B
Wed 02:54:15 AM 46.8670 -50.9810 77° East 545 627 33,000  Level FlightAware ADS-B
Wed 02:55:03 AM 46.8900 -50.8350 77° East 545 627 33,000  Level FlightAware ADS-B
Wed 02:55:40 AM 46.9070 -50.7210 78° East 545 627 33,000  Level FlightAware ADS-B
Wed 02:56:29 AM 46.9310 -50.5720 77° East 545 627 33,000  Level FlightAware ADS-B
Wed 02:57:17 AM 46.9540 -50.4250 77° East 545 627 33,000  Level FlightAware ADS-B
Wed 02:57:53 AM 46.9720 -50.3150 76° East 545 627 33,000  Level FlightAware ADS-B
Wed 02:58:29 AM 46.9890 -50.2040 77° East 545 627 33,000  Level FlightAware ADS-B
Wed 02:59:17 AM 47.0120 -50.0580 77° East 545 627 33,000  Level FlightAware ADS-B
Wed 02:59:50 AM 47.0530 -49.7320 79° East 554 638 33,000  Level FlightAware ADS-B
Wed 03:00:40 AM 47.0780 -49.5600 78° East 554 638 33,000  Level FlightAware ADS-B
Wed 03:01:16 AM 47.0940 -49.4480 78° East 554 638 33,000  Level FlightAware ADS-B
Wed 03:02:00 AM 47.0000 -50.0000 78° East 545 627 33,000  Level ETMS Enhanced Traffic Management System
Wed 03:02:04 AM 47.1160 -49.2970 78° East 554 638 33,000  Level FlightAware ADS-B
Wed 03:02:33 AM 47.1167 -49.0833 78° East 550 633 33,000  Level Gander Center
Wed 03:02:48 AM 47.1360 -49.1600 78° East 554 638 33,000  Level FlightAware ADS-B
Wed 03:03:36 AM 47.1580 -49.0090 78° East 554 638 33,000  Level FlightAware ADS-B
Wed 03:04:13 AM 47.1740 -48.8930 78° East 554 638 33,000  Level FlightAware ADS-B
Wed 03:04:50 AM 47.1910 -48.7770 78° East 554 638 33,000  Level FlightAware ADS-B
Wed 03:05:38 AM 47.2130 -48.6270 78° East 554 638 33,000  Level FlightAware ADS-B
Wed 03:06:15 AM 47.2290 -48.5100 79° East 554 638 33,000  Level FlightAware ADS-B
Wed 03:07:04 AM 47.2520 -48.3570 77° East 554 638 33,000  Level FlightAware ADS-B
Wed 03:07:40 AM 47.2680 -48.2440 78° East 554 638 33,000  Level FlightAware ADS-B
Wed 03:08:28 AM 47.2900 -48.0930 78° East 554 638 33,000  Level FlightAware ADS-B
Wed 03:09:04 AM 47.3060 -47.9800 78° East 554 638 33,000  Level FlightAware ADS-B
Wed 03:09:52 AM 47.3280 -47.8290 78° East 554 638 33,000  Level FlightAware ADS-B
Wed 03:10:33 AM 47.3333 -47.2833 78° East 550 633 33,000  Level Gander Center
Wed 03:11:33 AM 47.3500 -47.0833 83° East 550 633 33,000  Level Gander Center
Wed 03:12:55 AM 47.4000 -46.7667 77° East 570 656 33,000  Level Gander Center
Wed 03:15:00 AM 47.4308 -46.4216 79° East  Level FlightAware Approximate
Wed 03:22:00 AM 47.6099 -44.8973 80° East  Level FlightAware Approximate
Wed 03:23:00 AM 47.6338 -44.6787 82° East  Level FlightAware Approximate
Wed 03:24:00 AM 47.6544 -44.4593 82° East  Level FlightAware Approximate
Wed 03:25:00 AM 47.6746 -44.2397 82° East  Level FlightAware Approximate
Wed 03:26:00 AM 47.6943 -44.0199 82° East  Level FlightAware Approximate
Wed 03:27:00 AM 47.7137 -43.8000 82° East  Level FlightAware Approximate
Wed 03:28:00 AM 47.7326 -43.5799 83° East  Level FlightAware Approximate
Wed 03:29:00 AM 47.7511 -43.3596 83° East  Level FlightAware Approximate
Wed 03:30:00 AM 47.7692 -43.1392 83° East  Level FlightAware Approximate
Wed 03:31:00 AM 47.7868 -42.9187 83° East  Level FlightAware Approximate
Wed 03:32:00 AM 47.8041 -42.6980 83° East  Level FlightAware Approximate
Wed 03:33:00 AM 47.8214 -42.4772 83° East  Level FlightAware Approximate
Wed 03:34:00 AM 47.8395 -42.2565 83° East  Level FlightAware Approximate
Wed 03:35:00 AM 47.8572 -42.0356 83° East  Level FlightAware Approximate
Wed 03:36:00 AM 47.8745 -41.8147 83° East  Level FlightAware Approximate
Wed 03:37:00 AM 47.8913 -41.5935 83° East  Level FlightAware Approximate
Wed 03:38:00 AM 47.9078 -41.3722 84° East  Level FlightAware Approximate
Wed 03:39:00 AM 47.9238 -41.1508 84° East  Level FlightAware Approximate
Wed 03:40:00 AM 47.9394 -40.9292 84° East  Level FlightAware Approximate
Wed 03:41:00 AM 47.9545 -40.7076 84° East  Level FlightAware Approximate
Wed 03:42:00 AM 47.9693 -40.4857 84° East  Level FlightAware Approximate
Wed 03:43:00 AM 47.9836 -40.2638 84° East  Level FlightAware Approximate
Wed 03:44:00 AM 47.9974 -40.0417 85° East  Level FlightAware Approximate
Wed 03:45:00 AM 48.0077 -39.8192 86° East  Level FlightAware Approximate
Wed 03:45:00 AM 48.0000 -40.0000 86° East 547 629 33,000  Level ETMS Enhanced Traffic Management System
Wed 03:46:00 AM 48.0168 -39.5965 86° East  Level FlightAware Approximate
Wed 03:47:00 AM 48.0255 -39.3737 87° East  Level FlightAware Approximate
Wed 03:48:00 AM 48.0338 -39.1508 87° East  Level FlightAware Approximate
Wed 03:49:00 AM 48.0416 -38.9279 87° East  Level FlightAware Approximate
Wed 03:50:00 AM 48.0490 -38.7049 87° East  Level FlightAware Approximate
Wed 03:51:00 AM 48.0646 -38.1845 88° East 547 629 33,000  Level FlightAware Transoceanic
Wed 03:52:00 AM 48.0706 -37.9572 88° East 547 629 33,000  Level FlightAware Transoceanic
Wed 03:53:00 AM 48.0763 -37.7300 88° East 547 629 33,000  Level FlightAware Transoceanic
Wed 03:54:00 AM 48.0814 -37.5026 88° East 547 629 33,000  Level FlightAware Transoceanic
Wed 03:55:00 AM 48.0861 -37.2753 88° East 547 629 33,000  Level FlightAware Transoceanic
Wed 03:56:00 AM 48.0904 -37.0479 88° East 547 629 33,000  Level FlightAware Transoceanic
Wed 03:57:00 AM 48.0942 -36.8204 89° East 547 629 33,000  Level FlightAware Transoceanic
Wed 03:58:00 AM 48.0976 -36.5929 89° East 547 629 33,000  Level FlightAware Transoceanic
Wed 03:59:00 AM 48.1005 -36.3654 89° East 547 629 33,000  Level FlightAware Transoceanic
Wed 04:00:00 AM 48.1030 -36.1379 89° East 547 629 33,000  Level FlightAware Transoceanic
Wed 04:01:00 AM 48.1050 -35.9103 89° East 547 629 33,000  Level FlightAware Transoceanic
Wed 04:02:00 AM 48.1066 -35.6828 89° East 547 629 33,000  Level FlightAware Transoceanic
Wed 04:03:00 AM 48.1077 -35.4552 90° East 547 629 33,000  Level FlightAware Transoceanic
Wed 04:04:00 AM 48.1084 -35.2276 90° East 547 629 33,000  Level FlightAware Transoceanic
Wed 04:05:00 AM 48.1086 -35.0000 90° East 547 629 33,000  Level FlightAware Transoceanic
Wed 04:06:00 AM 48.1084 -34.7724 90° East 547 629 33,000  Level FlightAware Transoceanic
Wed 04:07:00 AM 48.1077 -34.5448 90° East 547 629 33,000  Level FlightAware Transoceanic
Wed 04:08:00 AM 48.1066 -34.3172 91° East 547 629 33,000  Level FlightAware Transoceanic
Wed 04:09:00 AM 48.1050 -34.0897 91° East 547 629 33,000  Level FlightAware Transoceanic
Wed 04:10:00 AM 48.1030 -33.8621 91° East 547 629 33,000  Level FlightAware Transoceanic
Wed 04:11:00 AM 48.1005 -33.6346 91° East 547 629 33,000  Level FlightAware Transoceanic
Wed 04:12:00 AM 48.0976 -33.4071 91° East 547 629 33,000  Level FlightAware Transoceanic
Wed 04:13:00 AM 48.0942 -33.1796 91° East 547 629 33,000  Level FlightAware Transoceanic
Wed 04:14:00 AM 48.0904 -32.9521 92° East 547 629 33,000  Level FlightAware Transoceanic
Wed 04:15:00 AM 48.0861 -32.7247 92° East 547 629 33,000  Level FlightAware Transoceanic
Wed 04:16:00 AM 48.0814 -32.4974 92° East 547 629 33,000  Level FlightAware Transoceanic
Wed 04:17:00 AM 48.0763 -32.2700 92° East 547 629 33,000  Level FlightAware Transoceanic
Wed 04:18:00 AM 48.0706 -32.0428 92° East 547 629 33,000  Level FlightAware Transoceanic
Wed 04:19:00 AM 48.0646 -31.8155 92° East 547 629 33,000  Level FlightAware Transoceanic
Wed 04:20:00 AM 48.0581 -31.5883 93° East 547 629 33,000  Level FlightAware Transoceanic
Wed 04:21:00 AM 48.0511 -31.3612 93° East 547 629 33,000  Level FlightAware Transoceanic
Wed 04:22:00 AM 48.0437 -31.1342 93° East 547 629 33,000  Level FlightAware Transoceanic
Wed 04:23:00 AM 48.0359 -30.9072 93° East 547 629 33,000  Level FlightAware Transoceanic
Wed 04:24:00 AM 48.0276 -30.6803 93° East 547 629 33,000  Level FlightAware Transoceanic
Wed 04:25:00 AM 48.0188 -30.4534 93° East 547 629 33,000  Level FlightAware Transoceanic
Wed 04:26:00 AM 48.0096 -30.2267 94° East 547 629 33,000  Level FlightAware Transoceanic
Wed 04:27:00 AM 48.0002 -30.0040 94° East  Level FlightAware Approximate
Wed 04:28:00 AM 47.9900 -29.7815 94° East  Level FlightAware Approximate
Wed 04:29:00 AM 48.0305 -29.7898 78° East  Level FlightAware Approximate
Wed 04:29:00 AM 48.0000 -30.0000 78° East 560 644 33,000  Level ETMS Enhanced Traffic Management System
Wed 04:30:00 AM 48.0617 -29.5715 78° East  Level FlightAware Approximate
Wed 04:31:00 AM 48.0925 -29.3529 78° East  Level FlightAware Approximate
Wed 04:32:00 AM 48.1229 -29.1340 78° East  Level FlightAware Approximate
Wed 04:33:00 AM 48.1529 -28.9149 78° East  Level FlightAware Approximate
Wed 04:34:00 AM 48.1824 -28.6956 78° East  Level FlightAware Approximate
Wed 04:35:00 AM 48.2511 -28.1719 79° East 560 644 33,000  Level FlightAware Transoceanic
Wed 04:36:00 AM 48.2805 -27.9422 79° East 560 644 33,000  Level FlightAware Transoceanic
Wed 04:37:00 AM 48.3094 -27.7122 79° East 560 644 33,000  Level FlightAware Transoceanic
Wed 04:38:00 AM 48.3378 -27.4819 80° East 560 644 33,000  Level FlightAware Transoceanic
Wed 04:39:00 AM 48.3658 -27.2514 80° East 560 644 33,000  Level FlightAware Transoceanic
Wed 04:40:00 AM 48.3933 -27.0206 80° East 560 644 33,000  Level FlightAware Transoceanic
Wed 04:41:00 AM 48.4203 -26.7896 80° East 560 644 33,000  Level FlightAware Transoceanic
Wed 04:42:00 AM 48.4469 -26.5583 80° East 560 644 33,000  Level FlightAware Transoceanic
Wed 04:43:00 AM 48.4730 -26.3268 80° East 560 644 33,000  Level FlightAware Transoceanic
Wed 04:44:00 AM 48.4987 -26.0951 81° East 560 644 33,000  Level FlightAware Transoceanic
Wed 04:45:00 AM 48.5239 -25.8631 81° East 560 644 33,000  Level FlightAware Transoceanic
Wed 04:46:00 AM 48.5486 -25.6309 81° East 560 644 33,000  Level FlightAware Transoceanic
Wed 04:47:00 AM 48.5729 -25.3985 81° East 560 644 33,000  Level FlightAware Transoceanic
Wed 04:48:00 AM 48.5966 -25.1658 81° East 560 644 33,000  Level FlightAware Transoceanic
Wed 04:49:00 AM 48.6200 -24.9330 81° East 560 644 33,000  Level FlightAware Transoceanic
Wed 04:50:00 AM 48.6428 -24.6999 82° East 560 644 33,000  Level FlightAware Transoceanic
Wed 04:51:00 AM 48.6652 -24.4666 82° East 560 644 33,000  Level FlightAware Transoceanic
Wed 04:52:00 AM 48.6871 -24.2331 82° East 560 644 33,000  Level FlightAware Transoceanic
Wed 04:53:00 AM 48.7085 -23.9995 82° East 560 644 33,000  Level FlightAware Transoceanic
Wed 04:54:00 AM 48.7295 -23.7656 82° East 560 644 33,000  Level FlightAware Transoceanic
Wed 04:55:00 AM 48.7500 -23.5315 83° East 560 644 33,000  Level FlightAware Transoceanic
Wed 04:56:00 AM 48.7700 -23.2972 83° East 560 644 33,000  Level FlightAware Transoceanic
Wed 04:57:00 AM 48.7895 -23.0628 83° East 560 644 33,000  Level FlightAware Transoceanic
Wed 04:58:00 AM 48.8086 -22.8281 83° East 560 644 33,000  Level FlightAware Transoceanic
Wed 04:59:00 AM 48.8272 -22.5933 83° East 560 644 33,000  Level FlightAware Transoceanic
Wed 05:00:00 AM 48.8453 -22.3583 83° East 560 644 33,000  Level FlightAware Transoceanic
Wed 05:01:00 AM 48.8629 -22.1232 84° East 560 644 33,000  Level FlightAware Transoceanic
Wed 05:02:00 AM 48.8801 -21.8879 84° East 560 644 33,000  Level FlightAware Transoceanic
Wed 05:03:00 AM 48.8968 -21.6524 84° East 560 644 33,000  Level FlightAware Transoceanic
Wed 05:04:00 AM 48.9129 -21.4168 84° East 560 644 33,000  Level FlightAware Transoceanic
Wed 05:05:00 AM 48.9287 -21.1810 84° East 560 644 33,000  Level FlightAware Transoceanic
Wed 05:06:00 AM 48.9439 -20.9451 84° East 560 644 33,000  Level FlightAware Transoceanic
Wed 05:07:00 AM 48.9586 -20.7090 85° East 560 644 33,000  Level FlightAware Transoceanic
Wed 05:08:00 AM 48.9729 -20.4728 85° East 560 644 33,000  Level FlightAware Transoceanic
Wed 05:09:00 AM 48.9867 -20.2365 85° East 560 644 33,000 41 Level FlightAware Transoceanic
Wed 05:10:00 AM 48.9995 -20.0098 85° East  Level FlightAware Approximate
Wed 05:11:00 AM 49.0117 -19.7830 85° East  Level FlightAware Approximate
Wed 05:12:00 AM 49.0105 -19.7928 85° East  Level FlightAware Approximate
Wed 05:13:00 AM 49.0216 -19.5658 86° East  Level FlightAware Approximate
Wed 05:14:00 AM 49.0321 -19.3425 86° East  Level FlightAware Approximate
Wed 05:15:00 AM 49.0422 -19.1191 86° East  Level FlightAware Approximate
Wed 05:16:00 AM 49.0518 -18.8956 86° East  Level FlightAware Approximate
Wed 05:17:00 AM 49.0610 -18.6720 86° East  Level FlightAware Approximate
Wed 05:18:00 AM 49.0698 -18.4484 86° East  Level FlightAware Approximate
Wed 05:19:00 AM 49.0781 -18.2247 87° East  Level FlightAware Approximate
Wed 05:20:00 AM 49.0860 -18.0009 87° East  Level FlightAware Approximate
Wed 05:21:00 AM 49.0935 -17.7770 87° East  Level FlightAware Approximate
Wed 05:22:00 AM 49.1005 -17.5530 87° East  Level FlightAware Approximate
Wed 05:23:00 AM 49.1071 -17.3291 87° East  Level FlightAware Approximate
Wed 05:24:00 AM 49.1133 -17.1050 88° East  Level FlightAware Approximate
Wed 05:25:00 AM 49.1190 -16.8809 88° East  Level FlightAware Approximate
Wed 05:26:00 AM 49.1243 -16.6567 88° East  Level FlightAware Approximate
Wed 05:27:00 AM 49.1292 -16.4325 88° East  Level FlightAware Approximate
Wed 05:28:00 AM 49.1336 -16.2083 88° East  Level FlightAware Approximate
Wed 05:29:00 AM 49.1376 -15.9840 88° East  Level FlightAware Approximate
Wed 05:30:00 AM 49.1412 -15.7597 89° East  Level FlightAware Approximate
Wed 05:31:00 AM 49.1443 -15.5353 89° East  Level FlightAware Approximate
Wed 05:32:00 AM 49.1470 -15.3109 89° East  Level FlightAware Approximate
Wed 05:33:00 AM 49.1493 -15.0865 89° East  Level FlightAware Approximate
Wed 05:34:00 AM 49.1511 -14.8621 89° East  Level FlightAware Approximate
Wed 05:35:00 AM 49.1526 -14.6377 89° East  Level FlightAware Approximate
Wed 05:36:00 AM 49.1537 -14.4132 89° East  Level FlightAware Approximate
Wed 05:37:00 AM 49.1543 -14.1888 90° East  Level FlightAware Approximate
Wed 05:38:00 AM 49.1545 -13.9643 90° East  Level FlightAware Approximate
Wed 05:39:00 AM 49.1543 -13.7399 90° East  Level FlightAware Approximate
Wed 05:40:00 AM 49.1536 -13.5154 90° East  Level FlightAware Approximate
Wed 05:41:00 AM 49.1525 -13.2910 90° East  Level FlightAware Approximate
Wed 05:42:00 AM 49.1510 -13.0665 91° East  Level FlightAware Approximate
Wed 05:43:00 AM 49.1490 -12.8421 91° East  Level FlightAware Approximate
Wed 05:44:00 AM 49.1466 -12.6177 91° East  Level FlightAware Approximate
Wed 05:45:00 AM 49.1437 -12.3933 91° East  Level FlightAware Approximate
Wed 05:46:00 AM 49.1404 -12.1690 91° East  Level FlightAware Approximate
Wed 05:47:00 AM 49.1367 -11.9447 91° East  Level FlightAware Approximate
Wed 05:48:00 AM 49.1326 -11.7204 92° East  Level FlightAware Approximate
Wed 05:49:00 AM 49.1280 -11.4962 92° East  Level FlightAware Approximate
Wed 05:50:00 AM 49.1230 -11.2720 92° East  Level FlightAware Approximate
Wed 05:51:00 AM 49.1175 -11.0478 92° East  Level FlightAware Approximate
Wed 05:52:00 AM 49.1116 -10.8237 92° East  Level FlightAware Approximate
Wed 05:53:00 AM 49.1053 -10.5997 92° East  Level FlightAware Approximate
Wed 05:54:00 AM 49.0985 -10.3757 93° East  Level FlightAware Approximate
Wed 05:55:00 AM 49.0913 -10.1518 93° East  Level FlightAware Approximate
Wed 05:56:00 AM 49.0837 -9.9280 93° East  Level FlightAware Approximate
Wed 05:56:56 AM 48.7521 -8.9563 93° East 1 1 35,000  Level FlightAware UK
Wed 05:57:00 AM 49.0757 -9.7042 93° East  Level FlightAware Approximate
Wed 05:57:07 AM 48.7480 -8.8930 93° East 569 655 35,000  Level FlightAware ADS-B
Wed 05:57:42 AM 48.7390 -8.7630 96° East 569 655 35,000  Level FlightAware ADS-B
Wed 05:58:29 AM 48.7300 -8.6040 95° East 569 655 35,000  Level FlightAware ADS-B
Wed 05:59:02 AM 48.7179 -8.4559 95° East 504 580 35,000  Level FlightAware UK
Wed 05:59:12 AM 48.7140 -8.4050 95° East 567 652 35,000  Level FlightAware ADS-B
Wed 05:59:52 AM 48.6930 -8.2470 101° East 559 643 35,000  Level FlightAware ADS-B
Wed 06:00:32 AM 48.6616 -8.1143 101° East 504 580 35,000  Level FlightAware UK
Wed 06:00:37 AM 48.6560 -8.0810 101° East 556 640 35,000  Level FlightAware ADS-B
Wed 06:01:17 AM 48.6220 -7.9450 111° Southeast 553 636 35,000  Level FlightAware ADS-B
Wed 06:02:00 AM 48.5790 -7.7790 111° Southeast 557 641 35,000  Level FlightAware ADS-B
Wed 06:02:32 AM 48.5489 -7.6798 111° Southeast 498 573 35,000  Level FlightAware UK
Wed 06:02:32 AM 48.5500 -7.6670 111° Southeast 556 640 35,000  Level FlightAware ADS-B
Wed 06:03:02 AM 48.5204 -7.5710 111° Southeast 498 573 35,000  Level FlightAware UK
Wed 06:03:12 AM 48.5100 -7.5170 111° Southeast 561 646 35,000  Level FlightAware ADS-B
Wed 06:03:57 AM 48.4670 -7.3570 112° Southeast 563 648 35,000  Level FlightAware ADS-B
Wed 06:04:32 AM 48.4328 -7.2448 112° Southeast 500 575 35,000  Level FlightAware UK
Wed 06:04:39 AM 48.4250 -7.2010 112° Southeast 565 650 35,000  Level FlightAware ADS-B
Wed 06:05:22 AM 48.3850 -7.0530 112° Southeast 566 651 35,000  Level FlightAware ADS-B
Wed 06:06:02 AM 48.3439 -6.9172 112° Southeast 502 578 35,000  Level FlightAware UK
Wed 06:06:02 AM 48.3470 -6.9100 112° Southeast 566 651 35,000  Level FlightAware ADS-B
Wed 06:06:33 AM 48.3138 -6.8072 112° Southeast 502 578 35,000  Level FlightAware UK
Wed 06:06:48 AM 48.2970 -6.7290 112° Southeast 568 654 35,000  Level FlightAware ADS-B
Wed 06:07:28 AM 48.2570 -6.5820 112° Southeast 568 654 35,000  Level FlightAware ADS-B
Wed 06:08:03 AM 48.2237 -6.4791 112° Southeast 500 575 35,000  Level FlightAware UK
Wed 06:08:10 AM 48.2150 -6.4310 112° Southeast 571 657 35,000  Level FlightAware ADS-B
Wed 06:08:52 AM 48.1730 -6.2760 112° Southeast 572 658 35,000  Level FlightAware ADS-B
Wed 06:09:36 AM 48.1280 -6.1160 113° Southeast 574 661 35,000  Level FlightAware ADS-B
Wed 06:10:16 AM 48.0870 -5.9690 113° Southeast 576 663 35,000  Level FlightAware ADS-B
Wed 06:10:56 AM 48.0460 -5.8230 113° Southeast 576 663 35,000  Level FlightAware ADS-B
Wed 06:11:34 AM 48.0060 -5.6810 113° Southeast 577 664 35,000  Level FlightAware ADS-B
Wed 06:12:14 AM 47.9640 -5.5340 113° Southeast 578 665 35,000  Level FlightAware ADS-B
Wed 06:12:58 AM 47.9180 -5.3720 113° Southeast 579 666 35,000  Level FlightAware ADS-B
Wed 06:13:38 AM 47.8770 -5.2280 113° Southeast 579 666 35,000  Level FlightAware ADS-B
Wed 06:14:20 AM 47.8330 -5.0730 113° Southeast 579 666 35,000  Level FlightAware ADS-B
Wed 06:15:04 AM 47.7860 -4.9100 113° Southeast 580 667 35,000  Level FlightAware ADS-B
Wed 06:15:44 AM 47.7430 -4.7630 113° Southeast 579 666 35,000 141 Level FlightAware ADS-B
Wed 06:16:29 AM 47.6960 -4.6020 113° Southeast 575 662 35,200 300 Climbing FlightAware ADS-B
Wed 06:17:24 AM 47.6370 -4.4050 114° Southeast 577 664 35,500 396 Climbing FlightAware ADS-B
Wed 06:18:00 AM 47.5990 -4.2760 114° Southeast 577 664 35,800 438 Climbing FlightAware ADS-B
Wed 06:19:00 AM 47.5330 -4.0570 114° Southeast 576 663 36,200 360 Climbing FlightAware ADS-B
Wed 06:19:40 AM 47.4890 -3.9130 114° Southeast 572 658 36,400 293 Climbing FlightAware ADS-B
Wed 06:20:22 AM 47.4590 -3.8160 115° Southeast 571 657 36,600 441 Climbing FlightAware ADS-B
Wed 06:20:48 AM 47.4180 -3.6800 114° Southeast 569 655 36,900 343 Climbing FlightAware ADS-B
Wed 06:21:32 AM 47.3680 -3.5200 115° Southeast 569 655 37,000 73 Climbing FlightAware ADS-B
Wed 06:22:10 AM 47.3290 -3.3930 114° Southeast 567 652 37,000  Level FlightAware ADS-B
Wed 06:22:32 AM 47.3020 -3.3060 115° Southeast 566 651 37,000  Level FlightAware ADS-B
Wed 06:23:34 AM 47.2340 -3.0890 115° Southeast 564 649 37,000  Level FlightAware ADS-B
Wed 06:24:18 AM 47.1860 -2.9370 115° Southeast 563 648 37,000  Level FlightAware ADS-B
Wed 06:24:58 AM 47.1430 -2.8010 115° Southeast 563 648 37,000  Level FlightAware ADS-B
Wed 06:25:34 AM 47.1020 -2.6750 116° Southeast 564 649 37,000  Level FlightAware ADS-B
Wed 06:26:12 AM 47.0590 -2.5430 116° Southeast 565 650 37,000  Level FlightAware ADS-B
Wed 06:26:58 AM 47.0090 -2.3870 115° Southeast 565 650 37,000  Level FlightAware ADS-B
Wed 06:27:30 AM 46.9730 -2.2760 115° Southeast 564 649 37,000  Level FlightAware ADS-B
Wed 06:28:12 AM 46.9250 -2.1300 116° Southeast 564 649 37,000  Level FlightAware ADS-B
Wed 06:28:56 AM 46.8760 -1.9790 115° Southeast 564 649 37,000  Level FlightAware ADS-B
Wed 06:29:40 AM 46.8260 -1.8270 116° Southeast 564 649 37,000  Level FlightAware ADS-B
Wed 06:30:23 AM 46.7780 -1.6810 116° Southeast 564 649 37,000  Level FlightAware ADS-B
Wed 06:31:03 AM 46.7320 -1.5420 116° Southeast 563 648 37,000  Level FlightAware ADS-B
Wed 06:31:45 AM 46.6850 -1.4010 116° Southeast 562 647 37,000  Level FlightAware ADS-B
Wed 06:32:21 AM 46.6440 -1.2790 116° Southeast 563 648 37,000  Level FlightAware ADS-B
Wed 06:33:03 AM 46.5970 -1.1390 116° Southeast 563 648 37,000  Level FlightAware ADS-B
Wed 06:33:43 AM 46.5530 -1.0000 115° Southeast 564 649 37,000  Level FlightAware ADS-B
Wed 06:34:19 AM 46.5260 -0.8700 107° East 566 651 37,000  Level FlightAware ADS-B
Wed 06:35:38 AM 46.4920 -0.5930 100° East 566 651 37,000  Level FlightAware ADS-B
Wed 06:36:38 AM 46.4610 -0.3540 101° East 565 650 37,000  Level FlightAware ADS-B
Wed 06:37:52 AM 46.4270 -0.0750 100° East 564 649 37,000  Level FlightAware ADS-B
Wed 06:38:36 AM 46.4100 0.0560 101° East 565 650 37,000  Level FlightAware ADS-B
Wed 06:39:16 AM 46.3890 0.2200 100° East 564 649 37,000  Level FlightAware ADS-B
Wed 06:39:56 AM 46.3700 0.3680 106° East 565 650 37,000  Level FlightAware ADS-B
Wed 06:41:00 AM 46.3178 0.5739 106° East  Level Estimated
Wed 06:42:01 AM 46.3070 0.8470 101° East 564 649 37,000  Level FlightAware ADS-B
Wed 06:42:41 AM 46.2890 0.9800 101° East 565 650 37,000  Level FlightAware ADS-B
Wed 06:43:21 AM 46.2690 1.1220 101° East 564 649 37,000  Level FlightAware ADS-B
Wed 06:44:01 AM 46.2490 1.2650 101° East 564 649 37,000  Level FlightAware ADS-B
Wed 06:44:41 AM 46.2270 1.4190 102° East 564 649 37,000  Level FlightAware ADS-B
Wed 06:45:21 AM 46.2070 1.5530 102° East 563 648 37,000  Level FlightAware ADS-B
Wed 06:45:58 AM 46.1860 1.6800 103° East 563 648 37,000  Level FlightAware ADS-B
Wed 06:46:40 AM 46.1490 1.8690 106° East 562 647 37,000  Level FlightAware ADS-B
Wed 06:47:22 AM 46.1230 2.0210 104° East 562 647 37,000  Level FlightAware ADS-B
Wed 06:48:04 AM 46.0980 2.1800 103° East 561 646 37,000  Level FlightAware ADS-B
Wed 06:48:50 AM 46.0710 2.3470 103° East 561 646 37,000  Level FlightAware ADS-B
Wed 06:49:45 AM 46.0380 2.5480 103° East 559 643 37,000  Level FlightAware ADS-B
Wed 06:50:31 AM 46.0130 2.7030 103° East 558 642 37,000  Level FlightAware ADS-B
Wed 06:51:29 AM 45.9430 2.8990 117° Southeast 563 648 37,000  Level FlightAware ADS-B
Wed 06:52:23 AM 45.9610 2.8930 347° North 561 646 37,000  Level FlightAware ADS-B
Wed 06:52:29 AM 45.8260 3.0510 141° Southeast 563 648 37,000  Level FlightAware ADS-B
Wed 06:53:13 AM 45.7400 3.1600 138° Southeast 564 649 37,000  Level FlightAware ADS-B
Wed 06:53:57 AM 45.6550 3.2690 138° Southeast 562 647 37,000  Level FlightAware ADS-B
Wed 06:54:33 AM 45.5840 3.3580 139° Southeast 563 648 37,000  Level FlightAware ADS-B
Wed 06:55:23 AM 45.4880 3.4770 139° Southeast 563 648 37,000  Level FlightAware ADS-B
Wed 06:56:03 AM 45.4080 3.5760 139° Southeast 563 648 37,000  Level FlightAware ADS-B
Wed 06:56:43 AM 45.3280 3.6720 140° Southeast 563 648 37,000  Level FlightAware ADS-B
Wed 06:57:23 AM 45.2510 3.7660 139° Southeast 564 649 37,000  Level FlightAware ADS-B
Wed 06:58:03 AM 45.1690 3.8650 140° Southeast 563 648 37,000  Level FlightAware ADS-B
Wed 06:58:43 AM 45.0900 3.9590 140° Southeast 563 648 37,000  Level FlightAware ADS-B
Wed 06:59:23 AM 45.0130 4.0550 139° Southeast 563 648 37,000  Level FlightAware ADS-B
Wed 06:59:59 AM 44.9610 4.1690 123° Southeast 560 644 37,000  Level FlightAware ADS-B
Wed 07:00:43 AM 44.9100 4.3100 117° Southeast 559 643 37,000  Level FlightAware ADS-B
Wed 07:01:25 AM 44.8660 4.4510 114° Southeast 556 640 37,000  Level FlightAware ADS-B
Wed 07:02:05 AM 44.8270 4.5850 112° Southeast 555 639 37,000  Level FlightAware ADS-B
Wed 07:02:49 AM 44.7840 4.7300 113° Southeast 555 639 37,000  Level FlightAware ADS-B
Wed 07:03:29 AM 44.7450 4.8580 113° Southeast 554 638 37,000  Level FlightAware ADS-B
Wed 07:04:13 AM 44.6990 5.0110 113° Southeast 551 634 37,000  Level FlightAware ADS-B
Wed 07:04:49 AM 44.6650 5.1270 112° Southeast 548 631 37,000  Level FlightAware ADS-B
Wed 07:05:29 AM 44.6270 5.2560 112° Southeast 545 627 37,000  Level FlightAware ADS-B
Wed 07:06:13 AM 44.5840 5.4020 112° Southeast 542 624 37,000  Level FlightAware ADS-B
Wed 07:06:45 AM 44.5540 5.5060 112° Southeast 541 623 37,000  Level FlightAware ADS-B
Wed 07:07:29 AM 44.5070 5.6450 115° Southeast 543 625 37,000  Level FlightAware ADS-B
Wed 07:08:09 AM 44.4540 5.7630 122° Southeast 543 625 37,000  Level FlightAware ADS-B
Wed 07:08:55 AM 44.3890 5.9000 124° Southeast 541 623 37,000  Level FlightAware ADS-B
Wed 07:09:31 AM 44.3410 6.0010 124° Southeast 540 621 37,000  Level FlightAware ADS-B
Wed 07:10:17 AM 44.2760 6.1360 124° Southeast 540 621 37,000  Level FlightAware ADS-B
Wed 07:10:57 AM 44.2210 6.2520 123° Southeast 539 620 37,000  Level FlightAware ADS-B
Wed 07:11:43 AM 44.1560 6.3870 124° Southeast 539 620 37,000  Level FlightAware ADS-B
Wed 07:12:19 AM 44.1050 6.4890 125° Southeast 539 620 37,000  Level FlightAware ADS-B
Wed 07:13:05 AM 44.0410 6.6190 124° Southeast 539 620 37,000  Level FlightAware ADS-B
Wed 07:13:45 AM 43.9860 6.7330 124° Southeast 540 621 37,000  Level FlightAware ADS-B
Wed 07:14:30 AM 43.9240 6.8600 124° Southeast 538 619 37,000  Level FlightAware ADS-B
Wed 07:15:10 AM 43.8680 6.9750 124° Southeast 534 615 37,000  Level FlightAware ADS-B
Wed 07:15:53 AM 43.8100 7.0940 124° Southeast 528 608 37,000  Level FlightAware ADS-B
Wed 07:16:30 AM 43.7590 7.1980 124° Southeast 526 605 37,000  Level FlightAware ADS-B
Wed 07:17:14 AM 43.6980 7.3230 124° Southeast 525 604 37,000  Level FlightAware ADS-B
Wed 07:17:58 AM 43.6380 7.4460 124° Southeast 523 602 37,000  Level FlightAware ADS-B
Wed 07:18:34 AM 43.5900 7.5450 124° Southeast 522 601 37,000  Level FlightAware ADS-B
Wed 07:19:15 AM 43.5370 7.6550 124° Southeast 521 600 37,000  Level FlightAware ADS-B
Wed 07:19:57 AM 43.4790 7.7760 123° Southeast 521 600 37,000  Level FlightAware ADS-B
Wed 07:20:37 AM 43.4240 7.8820 126° Southeast 524 603 37,000  Level FlightAware ADS-B
Wed 07:21:24 AM 43.3560 8.0100 126° Southeast 524 603 37,000  Level FlightAware ADS-B
Wed 07:22:03 AM 43.3010 8.1150 126° Southeast 525 604 37,000  Level FlightAware ADS-B
Wed 07:22:45 AM 43.2430 8.2250 126° Southeast 525 604 37,000  Level FlightAware ADS-B
Wed 07:23:29 AM 43.1790 8.3460 126° Southeast 526 605 37,000  Level FlightAware ADS-B
Wed 07:24:09 AM 43.1210 8.4560 126° Southeast 527 606 37,000  Level FlightAware ADS-B
Wed 07:24:54 AM 43.0560 8.5770 126° Southeast 526 605 37,000  Level FlightAware ADS-B
Wed 07:25:33 AM 43.0010 8.6810 126° Southeast 523 602 37,000  Level FlightAware ADS-B
Wed 07:26:17 AM 42.9390 8.7970 126° Southeast 521 600 37,000  Level FlightAware ADS-B
Wed 07:26:58 AM 42.8790 8.9080 126° Southeast 521 600 37,000  Level FlightAware ADS-B
Wed 07:27:34 AM 42.8280 9.0030 126° Southeast 521 600 37,000  Level FlightAware ADS-B
Wed 07:28:13 AM 42.7730 9.1050 126° Southeast 522 601 37,000  Level FlightAware ADS-B
Wed 07:28:57 AM 42.7150 9.2260 123° Southeast 523 602 37,000  Level FlightAware ADS-B
Wed 07:29:33 AM 42.6690 9.3280 121° Southeast 520 598 37,000  Level FlightAware ADS-B
Wed 07:30:15 AM 42.6160 9.4410 122° Southeast 517 595 37,000  Level FlightAware ADS-B
Wed 07:30:59 AM 42.5590 9.5630 122° Southeast 514 592 37,000  Level FlightAware ADS-B
Wed 07:31:41 AM 42.5060 9.6780 122° Southeast 513 590 37,000  Level FlightAware ADS-B
Wed 07:32:21 AM 42.4570 9.7840 122° Southeast 511 588 37,000  Level FlightAware ADS-B
Wed 07:33:02 AM 42.4050 9.8970 122° Southeast 509 586 37,000  Level FlightAware ADS-B
Wed 07:33:48 AM 42.3510 10.0110 123° Southeast 507 583 37,000  Level FlightAware ADS-B
Wed 07:34:19 AM 42.3100 10.1000 122° Southeast 506 582 37,000  Level FlightAware ADS-B
Wed 07:35:03 AM 42.2540 10.2190 122° Southeast 506 582 37,000  Level FlightAware ADS-B
Wed 07:35:41 AM 42.2060 10.3200 123° Southeast 506 582 37,000  Level FlightAware ADS-B
Wed 07:36:23 AM 42.1520 10.4340 123° Southeast 507 583 37,000  Level FlightAware ADS-B
Wed 07:36:59 AM 42.1070 10.5290 123° Southeast 509 586 37,000  Level FlightAware ADS-B
Wed 07:37:43 AM 42.0510 10.6480 122° Southeast 510 587 37,000  Level FlightAware ADS-B
Wed 07:38:23 AM 42.0010 10.7530 123° Southeast 512 589 37,000  Level FlightAware ADS-B
Wed 07:39:07 AM 41.9430 10.8730 123° Southeast 513 590 37,000  Level FlightAware ADS-B
Wed 07:39:49 AM 41.8900 10.9840 123° Southeast 514 592 37,000  Level FlightAware ADS-B
Wed 07:40:33 AM 41.8320 11.1040 123° Southeast 515 593 37,000  Level FlightAware ADS-B
Wed 07:41:13 AM 41.7800 11.2100 123° Southeast 516 594 37,000  Level FlightAware ADS-B
Wed 07:41:53 AM 41.7290 11.3150 123° Southeast 516 594 37,000  Level FlightAware ADS-B
Wed 07:42:37 AM 41.6720 11.4330 123° Southeast 515 593 37,000  Level FlightAware ADS-B
Wed 07:43:17 AM 41.6190 11.5400 124° Southeast 513 590 37,000  Level FlightAware ADS-B
Wed 07:44:01 AM 41.5620 11.6560 123° Southeast 513 590 37,000  Level FlightAware ADS-B
Wed 07:44:43 AM 41.5060 11.7690 123° Southeast 514 592 37,000  Level FlightAware ADS-B
Wed 07:45:23 AM 41.4540 11.8750 123° Southeast 515 593 37,000  Level FlightAware ADS-B
Wed 07:45:59 AM 41.4060 11.9700 124° Southeast 515 593 37,000  Level FlightAware ADS-B
Wed 07:46:43 AM 41.3490 12.0840 124° Southeast 515 593 37,000  Level FlightAware ADS-B
Wed 07:47:22 AM 41.2980 12.1870 123° Southeast 515 593 37,000  Level FlightAware ADS-B
Wed 07:48:06 AM 41.2410 12.3010 124° Southeast 516 594 37,000  Level FlightAware ADS-B
Wed 07:48:46 AM 41.1860 12.4090 124° Southeast 516 594 37,000  Level FlightAware ADS-B
Wed 07:49:30 AM 41.1270 12.5250 124° Southeast 517 595 37,000  Level FlightAware ADS-B
Wed 07:50:10 AM 41.0730 12.6310 124° Southeast 516 594 37,000  Level FlightAware ADS-B
Wed 07:50:46 AM 41.0280 12.7200 124° Southeast 517 595 37,000  Level FlightAware ADS-B
Wed 07:51:28 AM 40.9690 12.8340 124° Southeast 517 595 37,000  Level FlightAware ADS-B
Wed 07:52:11 AM 40.9120 12.9460 124° Southeast 517 595 37,000  Level FlightAware ADS-B
Wed 07:52:53 AM 40.8620 13.0540 121° Southeast 517 595 37,000  Level FlightAware ADS-B
Wed 07:53:30 AM 40.8150 13.1600 120° Southeast 516 594 37,000  Level FlightAware ADS-B
Wed 07:54:15 AM 40.7620 13.2810 120° Southeast 516 594 37,000  Level FlightAware ADS-B
Wed 07:55:00 AM 40.7080 13.4030 120° Southeast 517 595 37,000  Level FlightAware ADS-B
Wed 07:55:33 AM 40.6690 13.4910 120° Southeast 517 595 37,000  Level FlightAware ADS-B
Wed 07:56:16 AM 40.6150 13.6120 120° Southeast 516 594 37,000  Level FlightAware ADS-B
Wed 07:56:59 AM 40.5650 13.7240 120° Southeast 517 595 37,000  Level FlightAware ADS-B
Wed 07:57:33 AM 40.5210 13.8230 120° Southeast 518 596 37,000  Level FlightAware ADS-B
Wed 07:58:15 AM 40.4710 13.9360 120° Southeast 520 598 37,000  Level FlightAware ADS-B
Wed 07:58:53 AM 40.4240 14.0390 121° Southeast 521 600 37,000  Level FlightAware ADS-B
Wed 07:59:40 AM 40.3660 14.1660 121° Southeast 522 601 37,000  Level FlightAware ADS-B
Wed 08:01:45 AM 40.2300 14.4660 121° Southeast 517 595 37,000  Level FlightAware ADS-B
Wed 08:02:32 AM 40.1550 14.6310 121° Southeast 517 595 37,000  Level FlightAware ADS-B
Wed 08:03:12 AM 40.1060 14.7370 121° Southeast 517 595 37,000  Level FlightAware ADS-B
Wed 08:03:54 AM 40.0560 14.8470 121° Southeast 518 596 37,000  Level FlightAware ADS-B
Wed 08:04:33 AM 40.0060 14.9560 121° Southeast 518 596 37,000  Level FlightAware ADS-B
Wed 08:05:19 AM 39.9510 15.0750 121° Southeast 523 602 37,000  Level FlightAware ADS-B
Wed 08:05:59 AM 39.8970 15.1910 121° Southeast 524 603 37,000  Level FlightAware ADS-B
Wed 08:06:45 AM 39.8440 15.3040 121° Southeast 525 604 37,000  Level FlightAware ADS-B
Wed 08:07:19 AM 39.8000 15.3970 122° Southeast 526 605 37,000  Level FlightAware ADS-B
Wed 08:08:01 AM 39.7420 15.5190 122° Southeast 527 606 37,000  Level FlightAware ADS-B
Wed 08:08:41 AM 39.6930 15.6230 121° Southeast 526 605 37,000  Level FlightAware ADS-B
Wed 08:09:21 AM 39.6390 15.7360 122° Southeast 526 605 37,000  Level FlightAware ADS-B
Wed 08:09:57 AM 39.5930 15.8320 122° Southeast 526 605 37,000  Level FlightAware ADS-B
Wed 08:10:41 AM 39.5370 15.9500 122° Southeast 526 605 37,000  Level FlightAware ADS-B
Wed 08:11:25 AM 39.4800 16.0680 122° Southeast 527 606 37,000  Level FlightAware ADS-B
Wed 08:12:05 AM 39.4280 16.1760 122° Southeast 527 606 37,000  Level FlightAware ADS-B
Wed 08:12:49 AM 39.3730 16.2910 122° Southeast 526 605 37,000  Level FlightAware ADS-B
Wed 08:13:29 AM 39.3210 16.3990 122° Southeast 529 609 37,000  Level FlightAware ADS-B
Wed 08:14:13 AM 39.2730 16.5260 116° Southeast 536 617 37,000  Level FlightAware ADS-B
Wed 08:14:45 AM 39.2440 16.6220 111° Southeast 537 618 37,000  Level FlightAware ADS-B
Wed 08:15:29 AM 39.2050 16.7540 111° Southeast 538 619 37,000  Level FlightAware ADS-B
Wed 08:16:13 AM 39.1650 16.8860 111° Southeast 538 619 37,000  Level FlightAware ADS-B
Wed 08:16:47 AM 39.1350 16.9850 111° Southeast 539 620 37,000  Level FlightAware ADS-B
Wed 08:17:31 AM 39.0960 17.1180 111° Southeast 539 620 37,000  Level FlightAware ADS-B
Wed 08:18:11 AM 39.0590 17.2380 112° Southeast 539 620 37,000  Level FlightAware ADS-B
Wed 08:18:47 AM 39.0270 17.3440 111° Southeast 539 620 37,000  Level FlightAware ADS-B
Wed 08:19:27 AM 38.9900 17.4640 112° Southeast 540 621 37,000  Level FlightAware ADS-B
Wed 08:20:46 AM 38.9180 17.7000 111° Southeast 542 624 37,000  Level FlightAware ADS-B
Wed 08:21:30 AM 38.8770 17.8320 112° Southeast 543 625 37,000  Level FlightAware ADS-B
Wed 08:22:08 AM 38.8420 17.9460 111° Southeast 544 626 37,000  Level FlightAware ADS-B
Wed 08:22:54 AM 38.7990 18.0860 111° Southeast 545 627 37,000  Level FlightAware ADS-B
Wed 08:23:38 AM 38.7580 18.2150 112° Southeast 546 628 37,000  Level FlightAware ADS-B
Wed 08:24:18 AM 38.7210 18.3360 111° Southeast 547 629 37,000  Level FlightAware ADS-B
Wed 08:25:02 AM 38.6790 18.4680 112° Southeast 548 631 37,000  Level FlightAware ADS-B
Wed 08:25:44 AM 38.6390 18.5940 112° Southeast 549 632 37,000  Level FlightAware ADS-B
Wed 08:26:24 AM 38.6010 18.7130 112° Southeast 549 632 37,000  Level FlightAware ADS-B
Wed 08:27:08 AM 38.5590 18.8450 112° Southeast 549 632 37,000  Level FlightAware ADS-B
Wed 08:27:49 AM 38.5210 18.9630 112° Southeast 550 633 37,000  Level FlightAware ADS-B
Wed 08:28:29 AM 38.4840 19.0900 110° East 552 635 37,000  Level FlightAware ADS-B
Wed 08:29:46 AM 38.4330 19.2840 108° East 553 636 37,000  Level FlightAware ADS-B
Wed 08:30:26 AM 38.3990 19.4150 108° East 554 638 37,000  Level FlightAware ADS-B
Wed 08:31:19 AM 38.3570 19.5740 109° East 556 640 37,000  Level FlightAware ADS-B
Wed 08:32:07 AM 38.3170 19.7230 109° East 557 641 37,000  Level FlightAware ADS-B
Wed 08:32:47 AM 38.2830 19.8510 109° East 559 643 37,000  Level FlightAware ADS-B
Wed 08:33:28 AM 38.2490 19.9780 109° East 560 644 37,000  Level FlightAware ADS-B
Wed 08:34:08 AM 38.2110 20.1150 109° East 562 647 37,000  Level FlightAware ADS-B
Wed 08:34:55 AM 38.1640 20.2890 109° East 563 648 37,000  Level FlightAware ADS-B
Wed 08:35:34 AM 38.1330 20.4010 109° East 564 649 37,000  Level FlightAware ADS-B
Wed 08:36:15 AM 38.0940 20.5330 111° Southeast 563 648 37,000  Level FlightAware ADS-B
Wed 08:37:14 AM 38.0290 20.7110 115° Southeast 561 646 37,000  Level FlightAware ADS-B
Wed 08:37:59 AM 37.9800 20.8450 115° Southeast 562 647 37,000  Level FlightAware ADS-B
Wed 08:38:34 AM 37.9470 20.9500 112° Southeast 562 647 37,000  Level FlightAware ADS-B
Wed 08:39:11 AM 37.9150 21.0530 111° Southeast 563 648 37,000  Level FlightAware ADS-B
Wed 08:39:56 AM 37.8680 21.2020 112° Southeast 562 647 37,000  Level FlightAware ADS-B
Wed 08:40:36 AM 37.8290 21.3230 112° Southeast 560 644 37,000  Level FlightAware ADS-B
Wed 08:41:21 AM 37.7840 21.4580 113° Southeast 560 644 37,000  Level FlightAware ADS-B
Wed 08:42:02 AM 37.7430 21.5820 113° Southeast 560 644 37,000  Level FlightAware ADS-B
Wed 08:42:47 AM 37.6980 21.7160 113° Southeast 560 644 37,000  Level FlightAware ADS-B
Wed 08:43:22 AM 37.6630 21.8240 112° Southeast 559 643 37,000  Level FlightAware ADS-B
Wed 08:44:09 AM 37.6160 21.9630 113° Southeast 559 643 37,000  Level FlightAware ADS-B
Wed 08:44:44 AM 37.5830 22.0620 113° Southeast 558 642 37,000  Level FlightAware ADS-B
Wed 08:45:29 AM 37.5360 22.2020 113° Southeast 557 641 37,000  Level FlightAware ADS-B
Wed 08:46:14 AM 37.4900 22.3360 113° Southeast 560 644 37,000  Level FlightAware ADS-B
Wed 08:46:54 AM 37.4490 22.4570 113° Southeast 560 644 37,000  Level FlightAware ADS-B
Wed 08:47:29 AM 37.4130 22.5630 113° Southeast 561 646 37,000  Level FlightAware ADS-B
Wed 08:48:06 AM 37.3770 22.6680 113° Southeast 562 647 37,000  Level FlightAware ADS-B
Wed 08:48:49 AM 37.3300 22.8020 114° Southeast 563 648 37,000  Level FlightAware ADS-B
Wed 08:49:40 AM 37.2770 22.9530 114° Southeast 562 647 37,000  Level FlightAware ADS-B
Wed 08:50:20 AM 37.2360 23.0730 113° Southeast 561 646 37,000  Level FlightAware ADS-B
Wed 08:51:04 AM 37.1900 23.2050 114° Southeast 560 644 37,000 143 Level FlightAware ADS-B
Wed 08:51:44 AM 37.1490 23.3240 113° Southeast 558 642 37,200 308 Climbing FlightAware ADS-B
Wed 08:52:22 AM 37.1100 23.4380 113° Southeast 555 639 37,400 395 Climbing FlightAware ADS-B
Wed 08:53:00 AM 37.0710 23.5490 114° Southeast 556 640 37,700 366 Climbing FlightAware ADS-B
Wed 08:53:44 AM 37.0260 23.6790 113° Southeast 559 643 37,900 375 Climbing FlightAware ADS-B
Wed 08:54:20 AM 36.9880 23.7870 114° Southeast 559 643 38,200 429 Climbing FlightAware ADS-B
Wed 08:55:08 AM 36.9380 23.9280 114° Southeast 555 639 38,500 409 Climbing FlightAware ADS-B
Wed 08:55:48 AM 36.8960 24.0450 114° Southeast 551 634 38,800 357 Climbing FlightAware ADS-B
Wed 08:56:32 AM 36.8500 24.1730 114° Southeast 549 632 39,000 141 Climbing FlightAware ADS-B
Wed 08:57:13 AM 36.8080 24.2890 114° Southeast 549 632 39,000  Level FlightAware ADS-B
Wed 08:57:48 AM 36.7700 24.3920 115° Southeast 545 627 39,000  Level FlightAware ADS-B
Wed 08:58:28 AM 36.7290 24.5060 114° Southeast 542 624 39,000  Level FlightAware ADS-B
Wed 08:59:14 AM 36.6810 24.6380 114° Southeast 540 621 39,000  Level FlightAware ADS-B
Wed 08:59:46 AM 36.6480 24.7260 115° Southeast 539 620 39,000  Level FlightAware ADS-B
Wed 09:00:30 AM 36.6020 24.8510 115° Southeast 540 621 39,000  Level FlightAware ADS-B
Wed 09:01:10 AM 36.5600 24.9620 115° Southeast 540 621 39,000  Level FlightAware ADS-B
Wed 09:01:54 AM 36.5120 25.0890 115° Southeast 541 623 39,000  Level FlightAware ADS-B
Wed 09:02:35 AM 36.4700 25.2010 115° Southeast 542 624 39,000  Level FlightAware ADS-B
Wed 09:03:14 AM 36.4280 25.3110 115° Southeast 543 625 39,000  Level FlightAware ADS-B
Wed 09:03:56 AM 36.3830 25.4290 115° Southeast 542 624 39,000  Level FlightAware ADS-B
Wed 09:04:34 AM 36.3420 25.5390 115° Southeast 543 625 39,000  Level FlightAware ADS-B
Wed 09:05:15 AM 36.3000 25.6510 115° Southeast 542 624 39,000  Level FlightAware ADS-B
Wed 09:06:00 AM 36.2510 25.7800 115° Southeast 541 623 39,000  Level FlightAware ADS-B
Wed 09:06:32 AM 36.2160 25.8710 115° Southeast 542 624 39,000  Level FlightAware ADS-B
Wed 09:07:14 AM 36.1730 25.9860 115° Southeast 540 621 39,000  Level FlightAware ADS-B
Wed 09:07:56 AM 36.1280 26.1040 115° Southeast 538 619 39,000  Level FlightAware ADS-B
Wed 09:08:40 AM 36.0810 26.2260 115° Southeast 535 616 39,000  Level FlightAware ADS-B
Wed 09:09:22 AM 36.0360 26.3420 116° Southeast 532 612 39,000  Level FlightAware ADS-B
Wed 09:10:02 AM 35.9940 26.4510 115° Southeast 530 610 39,000  Level FlightAware ADS-B
Wed 09:10:46 AM 35.9470 26.5710 116° Southeast 530 610 39,000  Level FlightAware ADS-B
Wed 09:11:26 AM 35.9050 26.6810 115° Southeast 532 612 39,000  Level FlightAware ADS-B
Wed 09:12:08 AM 35.8600 26.7950 116° Southeast 533 613 39,000  Level FlightAware ADS-B
Wed 09:12:44 AM 35.8270 26.8830 115° Southeast 533 613 39,000  Level FlightAware ADS-B
Wed 09:13:32 AM 35.7840 26.9950 115° Southeast 533 613 39,000  Level FlightAware ADS-B
Wed 09:14:14 AM 35.7290 27.1300 117° Southeast 531 611 39,000  Level FlightAware ADS-B
Wed 09:14:56 AM 35.6870 27.2370 116° Southeast 532 612 39,000  Level FlightAware ADS-B
Wed 09:15:32 AM 35.6560 27.3210 114° Southeast 532 612 39,000  Level FlightAware ADS-B
Wed 09:16:21 AM 35.6120 27.4360 115° Southeast 532 612 39,000  Level FlightAware ADS-B
Wed 09:16:57 AM 35.5800 27.5200 115° Southeast 532 612 39,000  Level FlightAware ADS-B
Wed 09:17:45 AM 35.5380 27.6320 115° Southeast 532 612 39,000  Level FlightAware ADS-B
Wed 09:18:21 AM 35.5060 27.7150 115° Southeast 532 612 39,000  Level FlightAware ADS-B
Wed 09:18:57 AM 35.4740 27.7990 115° Southeast 532 612 39,000  Level FlightAware ADS-B
Wed 09:19:45 AM 35.4320 27.9110 115° Southeast 532 612 39,000  Level FlightAware ADS-B
Wed 09:20:23 AM 35.3240 28.1430 120° Southeast 534 615 39,000  Level FlightAware ADS-B
Wed 09:20:58 AM 35.2860 28.2380 116° Southeast 534 615 39,000  Level FlightAware ADS-B
Wed 09:21:44 AM 35.2350 28.3640 116° Southeast 533 613 39,000  Level FlightAware ADS-B
Wed 09:22:06 AM 35.2110 28.4220 117° Southeast 533 613 39,000  Level FlightAware ADS-B
Wed 09:22:46 AM 35.1670 28.5290 117° Southeast 532 612 39,000  Level FlightAware ADS-B
Wed 09:23:35 AM 35.1180 28.6500 116° Southeast 531 611 39,000  Level FlightAware ADS-B
Wed 09:24:22 AM 35.0630 28.7850 116° Southeast 528 608 39,000  Level FlightAware ADS-B
Wed 09:24:59 AM 35.0300 28.8700 115° Southeast 528 608 39,000  Level FlightAware ADS-B
Wed 09:25:48 AM 34.9690 29.0120 118° Southeast 532 612 39,000  Level FlightAware ADS-B
Wed 09:26:27 AM 34.9330 29.1010 116° Southeast 532 612 39,000  Level FlightAware ADS-B
Wed 09:27:04 AM 34.9000 29.1860 115° Southeast 532 612 39,000  Level FlightAware ADS-B
Wed 09:27:58 AM 34.8260 29.3580 118° Southeast 532 612 39,000  Level FlightAware ADS-B
Wed 09:28:42 AM 34.7840 29.4590 117° Southeast 532 612 39,000  Level FlightAware ADS-B
Wed 09:29:19 AM 34.7340 29.5790 117° Southeast 531 611 39,000  Level FlightAware ADS-B
Wed 09:30:08 AM 34.6790 29.7110 117° Southeast 529 609 39,000  Level FlightAware ADS-B
Wed 09:30:49 AM 34.6330 29.8180 118° Southeast 527 606 39,000  Level FlightAware ADS-B
Wed 09:31:28 AM 34.5970 29.9060 116° Southeast 527 606 39,000  Level FlightAware ADS-B
Wed 09:32:05 AM 34.5620 29.9890 117° Southeast 527 606 39,000  Level FlightAware ADS-B
Wed 09:32:56 AM 34.4920 30.1400 119° Southeast 517 595 39,000  Level FlightAware ADS-B
Wed 09:33:31 AM 34.4480 30.2300 121° Southeast 515 593 39,000  Level FlightAware ADS-B
Wed 09:34:18 AM 34.3940 30.3430 120° Southeast 513 590 39,000  Level FlightAware ADS-B
Wed 09:34:56 AM 34.3470 30.4420 120° Southeast 512 589 39,000  Level FlightAware ADS-B
Wed 09:35:37 AM 34.2980 30.5440 120° Southeast 512 589 39,000  Level FlightAware ADS-B
Wed 09:36:18 AM 34.2500 30.6450 120° Southeast 512 589 39,000  Level FlightAware ADS-B
Wed 09:36:58 AM 34.2030 30.7430 120° Southeast 512 589 39,000  Level FlightAware ADS-B
Wed 09:37:38 AM 34.1540 30.8450 120° Southeast 512 589 39,000  Level FlightAware ADS-B
Wed 09:38:18 AM 34.1060 30.9450 120° Southeast 512 589 39,000  Level FlightAware ADS-B
Wed 09:39:19 AM 34.0340 31.0950 120° Southeast 510 587 39,000  Level FlightAware ADS-B
Wed 09:40:10 AM 33.9740 31.2170 121° Southeast 510 587 39,000  Level FlightAware ADS-B
Wed 09:40:53 AM 33.9210 31.3260 120° Southeast 510 587 39,000  Level FlightAware ADS-B
Wed 09:41:34 AM 33.8730 31.4230 121° Southeast 510 587 39,000  Level FlightAware ADS-B
Wed 09:42:19 AM 33.8190 31.5340 120° Southeast 511 588 39,000  Level FlightAware ADS-B
Wed 09:42:44 AM 33.7890 31.5960 120° Southeast 511 588 39,000  Level FlightAware ADS-B
Wed 09:43:30 AM 33.7350 31.7070 120° Southeast 512 589 39,000  Level FlightAware ADS-B
Wed 09:44:10 AM 33.6860 31.8050 121° Southeast 513 590 39,000  Level FlightAware ADS-B
Wed 09:44:55 AM 33.6310 31.9170 121° Southeast 513 590 39,000  Level FlightAware ADS-B
Wed 09:45:35 AM 33.5810 32.0170 121° Southeast 513 590 39,000 -63 Level FlightAware ADS-B
Wed 09:46:31 AM 33.5130 32.1540 121° Southeast 510 587 38,900 -557 Descending FlightAware ADS-B
Wed 09:47:12 AM 33.4640 32.2520 121° Southeast 508 585 38,100 -1,186 Descending FlightAware ADS-B
Wed 09:47:57 AM 33.4140 32.3530 121° Southeast 509 586 37,200 -1,133 Descending FlightAware ADS-B
Wed 09:48:42 AM 33.3560 32.4680 121° Southeast 506 582 36,400 -815 Descending FlightAware ADS-B
Wed 09:49:18 AM 33.3100 32.5590 121° Southeast 504 580 36,100 -545 Descending FlightAware ADS-B
Wed 09:49:59 AM 33.2620 32.6540 121° Southeast 501 577 35,700 -635 Descending FlightAware ADS-B
Wed 09:50:43 AM 33.2090 32.7580 121° Southeast 496 571 35,200 -776 Descending FlightAware ADS-B
Wed 09:51:24 AM 33.1980 32.7800 121° Southeast 495 570 34,600 -1,185 Descending FlightAware ADS-B
Wed 09:52:04 AM 33.1200 32.9350 121° Southeast 481 554 33,600 -1,793 Descending FlightAware ADS-B
Wed 09:52:51 AM 33.0620 33.0480 121° Southeast 463 533 32,000 -1,465 Descending FlightAware ADS-B
Wed 09:53:30 AM 33.0220 33.1270 121° Southeast 461 531 31,500 -2,096 Descending FlightAware ADS-B
Wed 09:54:14 AM 32.9680 33.2300 122° Southeast 449 517 29,100 -2,759 Descending FlightAware ADS-B
Wed 09:54:57 AM 32.9220 33.3190 122° Southeast 441 507 27,500 -2,175 Descending FlightAware ADS-B
Wed 09:55:34 AM 32.8830 33.3950 121° Southeast 435 501 26,200 -2,231 Descending FlightAware ADS-B
Wed 09:56:15 AM 32.8400 33.4780 122° Southeast 427 491 24,600 -2,222 Descending FlightAware ADS-B
Wed 09:56:55 AM 32.7990 33.5570 122° Southeast 419 482 23,200 -2,189 Descending FlightAware ADS-B
Wed 09:57:29 AM 32.7650 33.6240 121° Southeast 413 475 21,900 -2,222 Descending FlightAware ADS-B
Wed 09:58:16 AM 32.7180 33.7120 122° Southeast 404 465 20,200 -2,069 Descending FlightAware ADS-B
Wed 09:58:56 AM 32.6800 33.7850 122° Southeast 397 457 18,900 -2,096 Descending FlightAware ADS-B
Wed 09:59:39 AM 32.6370 33.8680 122° Southeast 389 448 17,300 -2,148 Descending FlightAware ADS-B
Wed 10:00:17 AM 32.6010 33.9350 123° Southeast 383 441 16,000 -2,100 Descending FlightAware ADS-B
Wed 10:00:59 AM 32.5610 34.0110 122° Southeast 376 433 14,500 -2,049 Descending FlightAware ADS-B
Wed 10:01:39 AM 32.5260 34.0770 122° Southeast 370 426 13,200 -1,931 Descending FlightAware ADS-B
Wed 10:02:26 AM 32.4830 34.1560 123° Southeast 364 419 11,700 -1,841 Descending FlightAware ADS-B
Wed 10:03:07 AM 32.4380 34.2180 131° Southeast 350 403 10,500 -923 Descending FlightAware ADS-B
Wed 10:03:44 AM 32.4010 34.2600 136° Southeast 350 403 10,500  Level FlightAware ADS-B
Wed 10:04:29 AM 32.3570 34.3110 136° Southeast 350 403 10,500 -1,143 Level FlightAware ADS-B
Wed 10:05:50 AM 32.2720 34.4070 136° Southeast 283 326 8,100 -1,108 Descending FlightAware ADS-B
Wed 10:06:39 AM 32.2340 34.4530 134° Southeast 283 326 8,100  Level FlightAware ADS-B
Wed 10:06:51 AM 32.2240 34.4640 137° Southeast 283 326 8,100  Level FlightAware ADS-B
Wed 10:07:15 AM 32.2060 34.4860 134° Southeast 283 326 8,100 -1,545 Level FlightAware ADS-B
Wed 10:08:14 AM 32.1640 34.5720 120° Southeast 5,800 -2,026 Descending FlightAware ADS-B
Wed 10:08:32 AM 32.1540 34.5910 122° Southeast 257 296 5,500 -818 Descending FlightAware ADS-B
Wed 10:08:58 AM 32.1370 34.6260 120° Southeast 267 307 5,200 -281 Descending FlightAware ADS-B
Wed 10:09:36 AM 32.1090 34.6730 125° Southeast 267 307 5,200  Level FlightAware ADS-B
Wed 10:10:07 AM 32.0880 34.7110 123° Southeast 259 298 5,200  Level FlightAware ADS-B
Wed 10:10:19 AM 32.0790 34.7250 127° Southeast 254 292 5,200  Level FlightAware ADS-B
Wed 10:10:49 AM 32.0610 34.7580 123° Southeast 233 268 5,200  Level FlightAware ADS-B
Wed 10:11:19 AM 32.0430 34.7870 126° Southeast 235 270 5,200 -222 Level FlightAware ADS-B
Wed 10:11:43 AM 32.0230 34.8100 136° Southeast 235 270 5,000 -500 Descending FlightAware ADS-B
Wed 10:12:07 AM 32.0040 34.8300 138° Southeast 233 268 4,800 -712 Descending FlightAware ADS-B
Wed 10:12:42 AM 31.9760 34.8610 137° Southeast 233 268 4,300 -1,250 Descending FlightAware ADS-B
Wed 10:13:19 AM 31.9570 34.8990 121° Southeast 221 254 3,300 -1,400 Descending FlightAware ADS-B
Wed 10:13:42 AM 31.9610 34.9230 79° East 192 221 2,900 -674 Descending FlightAware ADS-B
Wed 10:14:48 AM 31.9740 34.9770 74° East 165 190 2,300 -545 Descending FlightAware ADS-B
Wed 10:16:33 AM 32.0010 34.9070 294° West 500 -1,029 Descending FlightAware ADS-B
Wed 10:17:15 AM 31.9960 34.8760 259° West 61 70 -714 Descending FlightAware ADS-B
Wed 10:17:45 AM 31.9950 34.8710 257° West 21 24  Level FlightAware ADS-B
Wed 10:17:51 AM 31.9950 34.8700 270° West 16 18  Level FlightAware ADS-B

Login

Don't have an account? Register now (free) for customized features, flight alerts, and more!